createdAt,value
2018-04-29T22:41:03.995Z,992.83
2018-04-29T22:43:57.128Z,992.76
2018-04-29T22:45:52.352Z,992.67
2018-04-29T22:46:50.283Z,992.63
2018-04-29T22:47:50.310Z,992.65
2018-04-29T22:48:50.301Z,992.62
2018-04-29T22:49:50.322Z,992.57
2018-04-29T22:50:50.332Z,992.58
2018-04-29T22:51:50.409Z,992.55
2018-04-29T22:52:50.417Z,992.54
2018-04-29T22:53:50.383Z,992.50
2018-04-29T22:54:50.422Z,992.47
2018-04-29T22:55:50.395Z,992.38
2018-04-29T22:56:50.407Z,992.35
2018-04-29T22:57:50.430Z,992.28
2018-04-29T22:58:50.464Z,992.21
2018-04-29T22:59:50.438Z,992.19
2018-04-29T23:00:50.465Z,992.19
2018-04-29T23:01:50.468Z,992.17
2018-04-29T23:02:50.466Z,992.13
2018-04-29T23:03:50.511Z,992.06
2018-04-29T23:04:50.515Z,992.00
2018-04-29T23:05:50.506Z,992.01
2018-04-29T23:06:50.519Z,991.97
2018-04-29T23:07:50.527Z,991.94
2018-04-29T23:08:50.587Z,991.92
2018-04-29T23:09:50.559Z,991.91
2018-04-29T23:10:50.590Z,991.92
2018-04-29T23:11:50.631Z,991.91
2018-04-29T23:12:50.617Z,991.84
2018-04-29T23:13:50.633Z,991.82
2018-04-29T23:14:50.635Z,991.68
2018-04-29T23:15:50.633Z,991.69
2018-04-29T23:16:50.640Z,991.70
2018-04-29T23:17:50.665Z,991.63
2018-04-29T23:18:50.698Z,991.57
2018-04-29T23:19:50.683Z,991.57
2018-04-29T23:20:50.694Z,991.58
2018-04-29T23:21:50.845Z,991.49
2018-04-29T23:22:50.719Z,991.45
2018-04-29T23:23:50.742Z,991.50
2018-04-29T23:24:50.744Z,991.41
2018-04-29T23:25:50.789Z,991.42
2018-04-29T23:26:50.789Z,991.41
2018-04-29T23:27:50.804Z,991.40
2018-04-29T23:28:50.800Z,991.36
2018-04-29T23:29:50.816Z,991.29
2018-04-29T23:30:50.832Z,991.26
2018-04-29T23:31:50.829Z,991.19
2018-04-29T23:32:50.847Z,991.18
2018-04-29T23:33:50.858Z,991.16
2018-04-29T23:34:50.865Z,991.18
2018-04-29T23:35:50.895Z,991.11
2018-04-29T23:36:50.900Z,991.14
2018-04-29T23:37:50.927Z,991.09
2018-04-29T23:38:50.920Z,991.04
2018-04-29T23:39:50.932Z,991.02
2018-04-29T23:40:50.941Z,990.97
2018-04-29T23:42:50.972Z,990.96
2018-04-29T23:43:50.981Z,990.89
2018-04-29T23:44:50.982Z,990.88
2018-04-29T23:45:51.015Z,990.85
2018-04-29T23:46:51.037Z,990.76
2018-04-29T23:47:51.040Z,990.70
2018-04-29T23:48:51.047Z,990.70
2018-04-29T23:49:51.072Z,990.71
2018-04-29T23:50:51.089Z,990.69
2018-04-29T23:51:51.090Z,990.62
2018-04-29T23:52:51.085Z,990.59
2018-04-29T23:53:51.099Z,990.52
2018-04-29T23:54:51.162Z,990.53
2018-04-29T23:55:51.141Z,990.50
2018-04-29T23:56:51.167Z,990.49
2018-04-29T23:57:51.152Z,990.46
2018-04-29T23:58:51.182Z,990.39
2018-04-29T23:59:51.181Z,990.42
